Time;durP1;ratioP1;P1;durP2;ratioP2;P2;SDS_P1;SDS_P2;PMS_P1;PMS_P2;Temp;Humidity;BMP_temperature;BMP_pressure;BME280_temperature;BME280_humidity;BME280_pressure;Samples;Min_cycle;Max_cycle;Signal;HPM_P1;HPM_P2
2022/01/15 00:00:07;;;;;;;163.02;37.08;;;;;;;0.05;77.93;101053.63;347800;28;1244;-83
2022/01/15 00:00:20;;;;;;;195.35;43.10;;;;;;;0.02;77.60;101054.41;346235;28;1260;-83
2022/01/15 00:00:35;;;;;;;288.80;54.42;;;;;;;0.02;78.07;101053.53;346142;28;1200;-83
2022/01/15 00:00:48;;;;;;;271.50;53.35;;;;;;;0.01;78.24;101054.34;345279;28;1253;-83
2022/01/15 00:01:00;;;;;;;179.68;41.47;;;;;;;0.06;77.42;101052.81;346886;28;1470;-83
2022/01/15 00:01:12;;;;;;;136.52;34.25;;;;;;;0.06;77.32;101047.69;346367;28;1054;-83
2022/01/15 00:01:24;;;;;;;102.40;30.92;;;;;;;0.10;77.15;101046.97;346645;28;1113;-83
2022/01/15 00:01:37;;;;;;;126.45;34.78;;;;;;;0.12;76.48;101047.88;348104;28;1074;-83
2022/01/15 00:01:49;;;;;;;158.13;40.10;;;;;;;0.16;77.03;101049.72;346870;28;1191;-83
2022/01/15 00:02:01;;;;;;;149.32;38.17;;;;;;;0.18;76.84;101048.06;346830;28;916;-83
2022/01/15 00:02:14;;;;;;;122.63;33.85;;;;;;;0.21;76.96;101045.63;346768;28;1137;-83
2022/01/15 00:02:26;;;;;;;113.57;32.03;;;;;;;0.23;77.24;101044.00;347427;28;1390;-83
2022/01/15 00:02:39;;;;;;;111.28;33.15;;;;;;;0.27;76.89;101040.72;346707;28;1758;-83
2022/01/15 00:02:51;;;;;;;112.90;33.15;;;;;;;0.26;75.87;101036.41;346714;28;891;-83
2022/01/15 00:03:05;;;;;;;104.57;31.42;;;;;;;0.26;76.47;101044.06;345754;28;2155;-83
2022/01/15 00:03:17;;;;;;;79.03;30.58;;;;;;;0.30;76.82;101037.38;346762;28;859;-83
2022/01/15 00:03:29;;;;;;;124.40;38.03;;;;;;;0.19;76.66;101045.56;345471;28;1193;-83
2022/01/15 00:03:42;;;;;;;194.15;42.60;;;;;;;0.22;76.46;101042.25;344198;28;991;-83
2022/01/15 00:03:54;;;;;;;240.30;43.58;;;;;;;0.23;76.43;101045.69;343919;28;1009;-83
2022/01/15 00:04:06;;;;;;;293.58;45.97;;;;;;;0.23;76.55;101046.56;342802;28;1742;-83
2022/01/15 00:04:18;;;;;;;321.58;51.00;;;;;;;0.08;76.98;101044.38;341782;28;1966;-83
2022/01/15 00:04:34;;;;;;;189.02;42.30;;;;;;;0.11;76.68;101046.16;342317;28;1006;-83
2022/01/15 00:04:46;;;;;;;97.10;31.83;;;;;;;0.04;76.84;101044.22;343988;28;771;-83
2022/01/15 00:04:58;;;;;;;108.93;31.30;;;;;;;-0.05;77.23;101042.22;344598;28;1179;-83
2022/01/15 00:05:11;;;;;;;138.48;32.40;;;;;;;-0.19;77.74;101044.34;342115;28;1738;-83
2022/01/15 00:05:23;;;;;;;149.68;33.75;;;;;;;-0.13;77.63;101047.09;343809;28;1245;-83
2022/01/15 00:05:35;;;;;;;125.80;33.03;;;;;;;-0.11;77.73;101044.59;343962;28;1099;-83
2022/01/15 00:05:48;;;;;;;155.60;38.80;;;;;;;-0.06;78.10;101043.03;343992;28;1055;-83
2022/01/15 00:06:00;;;;;;;300.13;50.60;;;;;;;-0.10;77.73;101047.22;343660;28;1406;-83
2022/01/15 00:06:12;;;;;;;363.90;54.88;;;;;;;-0.09;77.82;101048.06;344659;28;1102;-83
2022/01/15 00:06:24;;;;;;;351.48;51.05;;;;;;;-0.05;77.47;101045.66;344741;28;1076;-84
2022/01/15 00:06:36;;;;;;;298.33;48.05;;;;;;;-0.03;77.62;101048.25;345668;28;898;-84
2022/01/15 00:06:48;;;;;;;293.92;48.30;;;;;;;0.03;77.78;101043.34;345200;28;969;-84
2022/01/15 00:07:00;;;;;;;182.35;39.85;;;;;;;0.07;77.15;101047.75;345259;28;1093;-83
2022/01/15 00:07:12;;;;;;;146.65;35.78;;;;;;;0.08;77.33;101044.38;345666;28;934;-83
2022/01/15 00:07:24;;;;;;;240.55;43.95;;;;;;;0.07;77.04;101039.22;344098;28;836;-83
2022/01/15 00:07:38;;;;;;;280.05;46.50;;;;;;;0.08;77.32;101043.50;344888;28;1032;-83
2022/01/15 00:07:51;;;;;;;270.08;47.60;;;;;;;0.14;77.23;101043.69;342356;28;2588;-83
2022/01/15 00:08:04;;;;;;;271.45;49.78;;;;;;;0.17;76.91;101048.91;343603;28;1248;-83
2022/01/15 00:08:16;;;;;;;202.75;40.95;;;;;;;0.21;76.97;101045.63;344350;28;801;-83
2022/01/15 00:08:28;;;;;;;92.72;28.23;;;;;;;0.23;76.54;101046.56;344372;28;1039;-83
2022/01/15 00:08:40;;;;;;;114.15;31.25;;;;;;;0.23;76.73;101044.00;345132;28;1035;-83
2022/01/15 00:08:52;;;;;;;165.65;37.55;;;;;;;0.26;76.70;101046.63;344269;28;745;-83
2022/01/15 00:09:05;;;;;;;276.85;47.03;;;;;;;0.26;75.72;101046.63;343949;28;1271;-83
2022/01/15 00:09:19;;;;;;;373.02;53.03;;;;;;;0.24;76.35;101048.28;345487;28;1031;-83
2022/01/15 00:09:31;;;;;;;301.35;46.17;;;;;;;0.26;76.02;101054.31;346707;28;1003;-83
2022/01/15 00:09:44;;;;;;;302.40;48.97;;;;;;;0.24;76.45;101050.84;345819;28;1570;-83
2022/01/15 00:09:56;;;;;;;382.55;58.28;;;;;;;0.26;76.25;101045.78;345547;28;1274;-83
2022/01/15 00:10:09;;;;;;;336.05;55.15;;;;;;;0.26;76.42;101049.19;344766;28;1862;-83
2022/01/15 00:10:25;;;;;;;230.73;44.65;;;;;;;0.22;76.73;101049.91;345645;28;1075;-83
2022/01/15 00:10:38;;;;;;;167.77;39.78;;;;;;;0.17;77.61;101057.44;345332;28;1064;-83
2022/01/15 00:10:50;;;;;;;170.68;40.08;;;;;;;0.13;77.58;101049.63;345691;28;748;-83
2022/01/15 00:11:02;;;;;;;170.57;40.35;;;;;;;0.11;77.57;101051.28;342382;28;1180;-83
2022/01/15 00:11:14;;;;;;;183.48;42.88;;;;;;;0.12;78.14;101050.44;341813;28;1700;-83
2022/01/15 00:11:26;;;;;;;184.27;44.33;;;;;;;0.17;78.18;101052.34;342685;28;1978;-83
2022/01/15 00:11:38;;;;;;;162.68;40.85;;;;;;;0.22;77.52;101049.06;342210;28;1192;-83
2022/01/15 00:11:55;;;;;;;288.63;46.50;;;;;;;0.21;77.56;101052.44;343206;28;1054;-83
2022/01/15 00:12:07;;;;;;;345.77;51.75;;;;;;;0.23;77.25;101055.91;342731;28;1192;-84
2022/01/15 00:12:19;;;;;;;406.77;60.80;;;;;;;0.23;77.36;101055.91;344021;28;1333;-84
2022/01/15 00:12:39;;;;;;;459.42;66.38;;;;;;;0.24;77.08;101048.28;342254;28;1566;-84
2022/01/15 00:12:51;;;;;;;342.05;50.45;;;;;;;0.23;77.47;101050.81;346779;28;863;-84
2022/01/15 00:13:03;;;;;;;307.30;45.80;;;;;;;0.25;76.82;101055.13;345425;28;1246;-84
2022/01/15 00:13:28;;;;;;;385.17;56.40;;;;;;;0.25;77.24;101044.91;345657;28;786;-84
2022/01/15 00:13:43;;;;;;;407.20;61.15;;;;;;;0.30;77.11;101048.50;346925;28;846;-83
2022/01/15 00:13:58;;;;;;;377.50;53.72;;;;;;;0.29;77.25;101051.84;345655;28;826;-83
2022/01/15 00:14:27;;;;;;;369.45;53.80;;;;;;;0.32;77.28;101046.84;342898;28;833;-83
2022/01/15 00:14:42;;;;;;;466.90;67.55;;;;;;;0.35;76.98;101048.63;345542;28;909;-83
2022/01/15 00:14:54;;;;;;;408.52;57.95;;;;;;;0.30;77.50;101051.06;345016;28;1609;-83
2022/01/15 00:15:11;;;;;;;238.60;42.85;;;;;;;0.31;76.87;101049.34;343954;28;1163;-83
2022/01/15 00:15:30;;;;;;;131.43;33.95;;;;;;;0.36;77.17;101043.56;343416;28;855;-83
2022/01/15 00:15:49;;;;;;;150.18;35.40;;;;;;;0.41;77.38;101045.41;342574;28;1051;-83
2022/01/15 00:16:08;;;;;;;429.90;60.40;;;;;;;0.44;77.36;101045.47;344452;28;1204;-83
2022/01/15 00:16:44;;;;;;;361.73;51.50;;;;;;;0.47;77.18;101040.47;344590;28;1477;-83
2022/01/15 00:17:04;;;;;;;184.57;39.30;;;;;;;0.53;77.29;101041.53;345341;28;1262;-83
2022/01/15 00:17:31;;;;;;;269.00;48.92;;;;;;;0.51;77.31;101039.75;346929;28;867;-83
2022/01/15 00:18:05;;;;;;;147.45;38.58;;;;;;;0.36;77.87;101053.81;348224;28;958;-83
2022/01/15 00:18:18;;;;;;;202.07;47.38;;;;;;;0.25;78.59;101055.13;347723;28;862;-83
2022/01/15 00:18:46;;;;;;;158.90;40.47;;;;;;;0.24;77.98;101050.84;347820;28;1738;-83
2022/01/15 00:19:07;;;;;;;153.82;42.70;;;;;;;0.09;77.90;101053.78;347877;28;1320;-83
2022/01/15 00:19:21;;;;;;;163.05;41.22;;;;;;;0.06;78.54;101047.69;346908;28;1058;-83
2022/01/15 00:19:41;;;;;;;162.70;38.95;;;;;;;0.00;78.58;101053.50;346918;28;1001;-83
2022/01/15 00:19:53;;;;;;;149.48;39.42;;;;;;;-0.02;79.69;101044.88;345823;28;1482;-83
2022/01/15 00:20:06;;;;;;;153.43;39.47;;;;;;;-0.01;79.42;101052.59;346632;28;1065;-83
2022/01/15 00:20:19;;;;;;;142.30;37.20;;;;;;;0.03;79.36;101056.13;345890;28;1196;-83
2022/01/15 00:20:32;;;;;;;160.95;40.38;;;;;;;0.10;79.04;101054.63;346739;28;1066;-83
2022/01/15 00:20:44;;;;;;;244.27;50.28;;;;;;;0.02;79.07;101056.06;347852;28;1141;-83
2022/01/15 00:20:56;;;;;;;259.33;49.28;;;;;;;-0.01;79.18;101059.41;346907;28;1270;-83
2022/01/15 00:21:09;;;;;;;285.65;49.35;;;;;;;0.01;79.34;101055.22;344816;28;1858;-83
2022/01/15 00:21:21;;;;;;;310.65;49.75;;;;;;;0.03;79.14;101052.72;345469;28;995;-83
2022/01/15 00:21:33;;;;;;;248.80;46.30;;;;;;;0.08;79.43;101056.28;346080;28;939;-83
2022/01/15 00:21:45;;;;;;;205.68;44.60;;;;;;;0.14;79.03;101053.91;346438;28;1671;-83
2022/01/15 00:21:57;;;;;;;225.73;47.67;;;;;;;0.15;79.42;101056.53;345608;28;1290;-83
2022/01/15 00:22:11;;;;;;;248.57;47.10;;;;;;;0.13;79.68;101057.31;345026;28;1934;-83
2022/01/15 00:22:23;;;;;;;243.98;45.83;;;;;;;0.15;78.98;101055.66;346762;28;1287;-83
2022/01/15 00:22:35;;;;;;;267.00;51.25;;;;;;;0.17;79.00;101061.69;346231;28;736;-83
2022/01/15 00:22:48;;;;;;;255.52;51.30;;;;;;;0.18;78.72;101053.19;346675;28;1170;-83
2022/01/15 00:23:00;;;;;;;204.43;42.58;;;;;;;0.21;79.11;101058.41;347520;28;1132;-83
2022/01/15 00:23:12;;;;;;;230.30;44.00;;;;;;;0.20;78.70;101059.22;347850;28;984;-83
2022/01/15 00:23:24;;;;;;;293.67;48.55;;;;;;;0.19;78.61;101054.94;347883;28;1083;-83
2022/01/15 00:23:36;;;;;;;281.10;47.60;;;;;;;0.14;78.55;101051.34;345534;28;1703;-83
2022/01/15 00:23:48;;;;;;;223.77;44.25;;;;;;;0.16;78.71;101054.84;345595;28;1164;-83
2022/01/15 00:24:00;;;;;;;166.15;41.38;;;;;;;0.18;78.41;101058.31;347086;28;1187;-83
2022/01/15 00:24:15;;;;;;;220.88;44.20;;;;;;;0.18;79.14;101054.09;348508;28;1193;-83
2022/01/15 00:24:27;;;;;;;222.95;42.90;;;;;;;0.11;78.76;101057.25;348420;28;984;-83
2022/01/15 00:24:39;;;;;;;189.75;43.10;;;;;;;0.11;79.44;101056.38;348254;28;1078;-83
2022/01/15 00:24:52;;;;;;;193.40;46.42;;;;;;;0.02;78.61;101045.84;347334;28;1603;-83
2022/01/15 00:25:04;;;;;;;191.23;43.38;;;;;;;-0.06;79.47;101051.59;349600;28;1234;-83
2022/01/15 00:25:18;;;;;;;200.85;43.28;;;;;;;-0.03;79.45;101051.69;350286;28;756;-83
2022/01/15 00:25:36;;;;;;;233.55;48.38;;;;;;;-0.09;79.09;101048.94;348479;28;1072;-83
2022/01/15 00:25:48;;;;;;;234.90;47.35;;;;;;;-0.19;79.60;101049.44;349927;28;1061;-83
2022/01/15 00:26:05;;;;;;;156.15;36.05;;;;;;;-0.22;80.22;101051.91;349564;28;1218;-83
2022/01/15 00:26:17;;;;;;;139.27;37.28;;;;;;;-0.22;79.60;101047.66;346522;28;1510;-84
2022/01/15 00:26:29;;;;;;;141.73;40.10;;;;;;;-0.18;79.88;101048.63;346812;28;1066;-83
2022/01/15 00:26:41;;;;;;;126.47;37.67;;;;;;;-0.13;79.34;101047.09;346702;28;1066;-83
2022/01/15 00:26:53;;;;;;;100.05;33.08;;;;;;;-0.10;79.24;101043.75;346889;28;877;-83
2022/01/15 00:27:06;;;;;;;94.85;30.55;;;;;;;-0.09;78.66;101043.81;346419;28;1251;-83
2022/01/15 00:27:18;;;;;;;96.88;29.90;;;;;;;-0.07;78.80;101043.88;345811;28;2163;-83
2022/01/15 00:27:30;;;;;;;104.57;32.55;;;;;;;-0.04;78.27;101047.41;345859;28;744;-83
2022/01/15 00:27:43;;;;;;;126.03;36.80;;;;;;;-0.07;78.64;101042.19;346492;28;1058;-83
2022/01/15 00:27:55;;;;;;;161.43;40.83;;;;;;;-0.07;78.60;101047.28;346654;28;1180;-83
2022/01/15 00:28:07;;;;;;;174.77;41.50;;;;;;;-0.12;79.24;101043.72;346754;28;739;-83
2022/01/15 00:28:19;;;;;;;184.82;40.15;;;;;;;-0.17;79.17;101045.25;347209;28;744;-83
2022/01/15 00:28:31;;;;;;;175.95;39.60;;;;;;;-0.19;79.30;101041.78;349415;28;1799;-83
2022/01/15 00:28:43;;;;;;;181.40;38.88;;;;;;;-0.21;79.45;101048.53;349797;28;734;-83
2022/01/15 00:28:55;;;;;;;182.40;41.80;;;;;;;-0.16;79.22;101041.00;349284;28;810;-83
2022/01/15 00:29:07;;;;;;;163.75;41.38;;;;;;;-0.15;78.91;101045.31;347935;28;1113;-83
2022/01/15 00:29:19;;;;;;;179.55;43.45;;;;;;;-0.18;79.40;101048.63;347703;28;1099;-83
2022/01/15 00:29:32;;;;;;;225.98;45.65;;;;;;;-0.22;78.81;101046.81;347842;28;1126;-83
2022/01/15 00:29:44;;;;;;;212.30;40.38;;;;;;;-0.17;79.04;101044.38;347491;28;1101;-83
2022/01/15 00:29:56;;;;;;;169.38;36.33;;;;;;;-0.12;77.84;101043.72;346105;28;1214;-84
2022/01/15 00:30:08;;;;;;;94.22;31.27;;;;;;;-0.09;77.16;101048.06;346821;28;747;-84
2022/01/15 00:30:21;;;;;;;108.13;31.45;;;;;;;-0.13;76.98;101052.19;345624;28;1242;-84
2022/01/15 00:30:33;;;;;;;125.68;32.30;;;;;;;-0.16;77.26;101047.00;345134;28;873;-84
2022/01/15 00:30:45;;;;;;;208.27;38.85;;;;;;;-0.16;77.47;101041.00;344020;28;1109;-84
2022/01/15 00:30:57;;;;;;;329.38;50.97;;;;;;;-0.17;77.86;101045.25;343880;28;2145;-83
2022/01/15 00:31:09;;;;;;;322.30;51.25;;;;;;;-0.15;77.03;101053.84;345903;28;1594;-83
2022/01/15 00:31:22;;;;;;;193.05;39.65;;;;;;;-0.19;77.30;101046.88;346214;28;1066;-83
2022/01/15 00:31:34;;;;;;;156.88;36.05;;;;;;;-0.24;77.72;101049.28;346569;28;1110;-83
2022/01/15 00:31:46;;;;;;;160.40;36.80;;;;;;;-0.23;77.90;101051.00;346637;28;1034;-83
2022/01/15 00:31:59;;;;;;;184.05;41.13;;;;;;;-0.21;77.53;101054.50;345783;28;1233;-83
2022/01/15 00:32:11;;;;;;;216.02;47.70;;;;;;;-0.26;77.56;101050.06;344079;28;1581;-83
2022/01/15 00:32:23;;;;;;;211.50;46.30;;;;;;;-0.33;78.21;101050.66;345715;28;1311;-83
2022/01/15 00:32:35;;;;;;;150.57;37.10;;;;;;;-0.41;78.99;101050.41;346634;28;1110;-83
2022/01/15 00:32:48;;;;;;;130.15;33.28;;;;;;;-0.40;79.30;101057.25;346673;28;1179;-83
2022/01/15 00:33:00;;;;;;;138.52;37.95;;;;;;;-0.46;79.69;101047.69;346437;28;1269;-83
2022/01/15 00:33:12;;;;;;;159.80;41.03;;;;;;;-0.42;79.68;101054.66;346358;28;1191;-83
2022/01/15 00:33:25;;;;;;;156.15;38.45;;;;;;;-0.41;79.66;101055.50;347975;28;987;-84
2022/01/15 00:33:38;;;;;;;171.20;38.70;;;;;;;-0.43;79.95;101052.88;348141;28;827;-83
2022/01/15 00:33:50;;;;;;;174.65;40.17;;;;;;;-0.34;80.27;101051.47;347375;28;1141;-83
2022/01/15 00:34:02;;;;;;;208.07;46.00;;;;;;;-0.29;79.40;101052.50;346186;28;1230;-84
2022/01/15 00:34:14;;;;;;;223.27;46.55;;;;;;;-0.38;79.70;101055.63;346662;28;1070;-84
2022/01/15 00:34:27;;;;;;;184.75;39.65;;;;;;;-0.35;79.84;101054.84;343831;28;1103;-83
2022/01/15 00:34:39;;;;;;;133.82;33.83;;;;;;;-0.38;79.87;101053.06;343352;28;1372;-83
2022/01/15 00:34:52;;;;;;;131.02;35.63;;;;;;;-0.45;80.39;101062.19;344406;28;1694;-83
2022/01/15 00:35:05;;;;;;;127.35;36.90;;;;;;;-0.42;79.96;101057.19;345013;28;1225;-83
2022/01/15 00:35:19;;;;;;;115.80;35.70;;;;;;;-0.37;80.37;101056.50;346718;28;1156;-83
2022/01/15 00:35:33;;;;;;;131.75;34.42;;;;;;;-0.33;80.40;101058.34;346981;28;825;-83
2022/01/15 00:35:45;;;;;;;118.10;31.85;;;;;;;-0.33;80.41;101058.34;346558;28;1040;-83
2022/01/15 00:35:58;;;;;;;138.85;34.67;;;;;;;-0.27;80.21;101054.28;346816;28;1179;-83
2022/01/15 00:36:10;;;;;;;132.32;35.83;;;;;;;-0.20;80.22;101055.38;347536;28;1094;-83
2022/01/15 00:36:22;;;;;;;145.52;38.75;;;;;;;-0.28;80.21;101052.56;348995;28;1063;-83
2022/01/15 00:36:34;;;;;;;193.68;41.70;;;;;;;-0.26;79.81;101055.19;347147;28;870;-83
2022/01/15 00:36:46;;;;;;;251.55;45.17;;;;;;;-0.29;79.23;101062.72;346624;28;1071;-84
2022/01/15 00:36:59;;;;;;;349.08;56.30;;;;;;;-0.22;79.28;101057.88;348121;28;1194;-84
2022/01/15 00:37:11;;;;;;;357.38;60.03;;;;;;;-0.21;79.47;101054.50;347953;28;1062;-83
2022/01/15 00:37:23;;;;;;;292.88;53.60;;;;;;;-0.25;79.65;101051.78;346941;28;1102;-83
2022/01/15 00:37:36;;;;;;;200.57;42.55;;;;;;;-0.31;79.86;101054.13;347024;28;947;-83
2022/01/15 00:37:48;;;;;;;186.27;41.47;;;;;;;-0.33;80.24;101053.22;347844;28;1161;-83
2022/01/15 00:38:01;;;;;;;177.57;41.78;;;;;;;-0.36;80.03;101053.09;347906;28;1189;-83
2022/01/15 00:38:13;;;;;;;153.10;39.40;;;;;;;-0.41;80.35;101056.38;345647;28;2064;-83
2022/01/15 00:38:25;;;;;;;116.20;33.90;;;;;;;-0.34;80.05;101051.47;346923;28;735;-83
2022/01/15 00:38:37;;;;;;;124.60;34.90;;;;;;;-0.32;80.06;101053.28;345488;28;1953;-83
2022/01/15 00:38:50;;;;;;;181.25;42.83;;;;;;;-0.31;80.22;101043.91;346033;28;1877;-83
2022/01/15 00:39:02;;;;;;;235.63;49.40;;;;;;;-0.24;79.72;101048.44;347555;28;1523;-83
2022/01/15 00:39:14;;;;;;;194.15;43.20;;;;;;;-0.22;79.01;101044.25;347173;28;1979;-83
2022/01/15 00:39:27;;;;;;;119.88;32.92;;;;;;;-0.20;79.17;101050.28;347741;28;1055;-83
2022/01/15 00:39:39;;;;;;;121.38;33.42;;;;;;;-0.26;79.03;101045.81;347613;28;760;-83
2022/01/15 00:39:51;;;;;;;136.57;38.40;;;;;;;-0.19;79.11;101041.78;347574;28;825;-83
2022/01/15 00:40:07;;;;;;;129.55;40.42;;;;;;;-0.16;79.01;101043.56;346820;28;1262;-83
2022/01/15 00:40:20;;;;;;;128.90;39.03;;;;;;;-0.25;78.77;101042.44;346580;28;976;-83
2022/01/15 00:40:32;;;;;;;128.13;36.97;;;;;;;-0.41;79.62;101041.03;346482;28;1176;-83
2022/01/15 00:40:44;;;;;;;122.28;35.10;;;;;;;-0.41;80.15;101040.19;345250;28;1081;-83
2022/01/15 00:40:56;;;;;;;152.50;39.85;;;;;;;-0.36;80.13;101046.34;345268;28;1175;-83
2022/01/15 00:41:08;;;;;;;170.80;43.10;;;;;;;-0.31;80.39;101047.34;345147;28;1151;-83
2022/01/15 00:41:20;;;;;;;157.82;42.00;;;;;;;-0.35;80.46;101047.19;345019;28;1224;-83
2022/01/15 00:41:35;;;;;;;116.18;34.72;;;;;;;-0.39;80.24;101042.78;344192;28;1597;-83
2022/01/15 00:41:47;;;;;;;95.68;32.95;;;;;;;-0.34;80.95;101041.25;344037;28;885;-83
2022/01/15 00:42:00;;;;;;;102.63;36.15;;;;;;;-0.32;80.71;101042.16;343760;28;1474;-83
2022/01/15 00:42:13;;;;;;;113.32;37.67;;;;;;;-0.31;80.25;101043.91;345181;28;1590;-83
2022/01/15 00:42:26;;;;;;;163.48;40.00;;;;;;;-0.32;79.52;101045.63;344412;28;1515;-84
2022/01/15 00:42:39;;;;;;;175.57;39.58;;;;;;;-0.28;78.86;101036.34;346855;28;785;-84
2022/01/15 00:42:51;;;;;;;128.50;36.10;;;;;;;-0.22;78.14;101036.59;346894;28;769;-84
2022/01/15 00:43:03;;;;;;;90.13;32.78;;;;;;;-0.16;77.82;101041.91;344070;28;1089;-83
2022/01/15 00:43:15;;;;;;;84.55;30.77;;;;;;;-0.13;77.91;101039.41;343656;28;1166;-83
2022/01/15 00:43:27;;;;;;;100.22;31.40;;;;;;;-0.10;77.61;101042.09;344142;28;1046;-83
2022/01/15 00:43:41;;;;;;;112.72;32.47;;;;;;;-0.09;76.69;101038.69;344057;28;1108;-83
2022/01/15 00:43:53;;;;;;;125.70;35.80;;;;;;;-0.12;76.64;101043.72;344509;28;1107;-83
2022/01/15 00:44:05;;;;;;;125.93;35.10;;;;;;;-0.13;76.34;101047.09;345071;28;1207;-83
2022/01/15 00:44:18;;;;;;;137.82;35.95;;;;;;;-0.13;76.28;101047.09;346399;28;774;-83
2022/01/15 00:44:30;;;;;;;171.02;40.88;;;;;;;-0.13;76.25;101043.66;344762;28;1062;-83
2022/01/15 00:44:42;;;;;;;165.82;41.65;;;;;;;-0.12;76.45;101042.84;345772;28;1027;-84
2022/01/15 00:44:56;;;;;;;123.05;35.05;;;;;;;-0.08;77.16;101043.00;345975;28;1691;-83
2022/01/15 00:45:13;;;;;;;90.47;30.02;;;;;;;-0.08;77.13;101050.69;346416;28;1063;-83
2022/01/15 00:45:29;;;;;;;82.18;30.02;;;;;;;-0.08;77.35;101047.22;344588;28;2579;-83
2022/01/15 00:45:41;;;;;;;109.43;35.95;;;;;;;-0.03;78.02;101038.91;345105;28;1218;-83
2022/01/15 00:45:57;;;;;;;115.72;38.03;;;;;;;-0.02;78.07;101044.88;344313;28;2991;-83
2022/01/15 00:46:09;;;;;;;96.38;34.10;;;;;;;0.02;77.46;101040.75;343933;28;1084;-83
2022/01/15 00:46:21;;;;;;;107.95;34.22;;;;;;;0.05;77.70;101048.53;343833;28;1185;-83
2022/01/15 00:46:33;;;;;;;99.78;32.08;;;;;;;0.03;77.94;101045.06;343816;28;904;-83
2022/01/15 00:46:54;;;;;;;122.00;31.55;;;;;;;0.05;78.06;101051.09;341670;29;1104;-83
2022/01/15 00:47:07;;;;;;;148.23;35.38;;;;;;;0.08;78.27;101046.94;343070;28;1144;-83
2022/01/15 00:47:19;;;;;;;133.18;38.35;;;;;;;0.12;78.50;101047.88;345081;28;2916;-83
2022/01/15 00:47:31;;;;;;;132.48;38.72;;;;;;;0.12;77.94;101047.88;345473;28;1126;-83
2022/01/15 00:47:44;;;;;;;133.63;37.90;;;;;;;0.16;78.54;101039.50;343629;28;1110;-83
2022/01/15 00:47:56;;;;;;;102.45;33.58;;;;;;;0.18;78.15;101048.06;344096;28;1313;-83
2022/01/15 00:48:08;;;;;;;136.98;37.75;;;;;;;0.20;77.99;101049.00;345568;28;748;-83
2022/01/15 00:48:20;;;;;;;186.63;42.72;;;;;;;0.18;78.25;101051.53;345597;28;740;-83
2022/01/15 00:48:33;;;;;;;231.38;49.05;;;;;;;0.18;77.79;101048.06;344297;28;1778;-83
2022/01/15 00:48:45;;;;;;;215.68;47.10;;;;;;;0.15;77.79;101048.84;342170;28;879;-84
2022/01/15 00:48:57;;;;;;;247.38;45.75;;;;;;;0.16;77.19;101050.63;342834;28;1215;-84
2022/01/15 00:49:10;;;;;;;239.38;42.03;;;;;;;0.19;77.26;101047.28;341652;28;1510;-84
2022/01/15 00:49:22;;;;;;;174.40;39.95;;;;;;;0.18;77.83;101048.97;342438;28;2159;-83
2022/01/15 00:49:34;;;;;;;169.43;44.65;;;;;;;0.21;77.47;101053.31;343623;28;897;-83
2022/01/15 00:49:46;;;;;;;207.80;48.05;;;;;;;0.21;78.13;101050.75;343522;28;750;-83
2022/01/15 00:50:03;;;;;;;229.27;47.00;;;;;;;0.23;78.00;101048.25;344481;28;1255;-83
2022/01/15 00:50:15;;;;;;;207.25;43.50;;;;;;;0.13;77.65;101042.81;344013;28;1060;-83
2022/01/15 00:50:27;;;;;;;163.85;42.50;;;;;;;0.13;77.75;101044.53;343852;28;1535;-83
2022/01/15 00:50:40;;;;;;;161.20;44.92;;;;;;;0.08;77.53;101040.94;345045;28;1093;-83
2022/01/15 00:50:52;;;;;;;160.80;44.30;;;;;;;-0.01;77.58;101047.50;344789;28;1061;-83
2022/01/15 00:51:04;;;;;;;140.43;39.25;;;;;;;-0.04;77.49;101042.28;343479;28;1239;-83
2022/01/15 00:51:16;;;;;;;127.10;37.30;;;;;;;-0.05;78.12;101044.78;343377;28;2763;-83
2022/01/15 00:51:28;;;;;;;176.48;45.15;;;;;;;-0.06;78.02;101049.03;343931;28;1141;-83
2022/01/15 00:51:41;;;;;;;213.90;50.10;;;;;;;-0.05;77.72;101050.75;345008;28;1208;-83
2022/01/15 00:51:53;;;;;;;193.55;45.63;;;;;;;-0.09;77.93;101046.38;344839;28;1176;-83
2022/01/15 00:52:07;;;;;;;157.35;40.30;;;;;;;-0.08;78.14;101047.22;345866;28;1686;-83
2022/01/15 00:52:19;;;;;;;134.35;39.80;;;;;;;-0.09;78.10;101046.38;343732;28;1453;-83
2022/01/15 00:52:32;;;;;;;154.07;41.58;;;;;;;-0.15;77.96;101048.72;342692;28;1180;-83
2022/01/15 00:52:44;;;;;;;148.45;39.58;;;;;;;-0.15;78.23;101045.31;342964;28;1758;-83
2022/01/15 00:52:56;;;;;;;136.00;39.65;;;;;;;-0.16;78.21;101041.91;342486;28;1274;-83
2022/01/15 00:53:08;;;;;;;168.90;44.55;;;;;;;-0.18;78.10;101043.53;343487;28;1137;-83
2022/01/15 00:53:20;;;;;;;176.13;44.25;;;;;;;-0.26;78.21;101044.97;343983;28;1040;-83
2022/01/15 00:53:33;;;;;;;151.73;39.47;;;;;;;-0.28;78.93;101041.44;343374;28;809;-83
2022/01/15 00:53:45;;;;;;;140.73;40.17;;;;;;;-0.29;78.79;101045.69;342888;28;763;-83
2022/01/15 00:53:57;;;;;;;162.65;44.65;;;;;;;-0.24;79.05;101040.78;343943;28;1291;-83
2022/01/15 00:54:09;;;;;;;169.40;45.85;;;;;;;-0.24;78.90;101049.28;344929;28;745;-83
2022/01/15 00:54:21;;;;;;;127.15;39.40;;;;;;;-0.25;78.76;101045.00;344846;28;1052;-83
2022/01/15 00:54:33;;;;;;;135.38;38.13;;;;;;;-0.28;78.44;101049.13;346810;28;1049;-83
2022/01/15 00:54:46;;;;;;;152.45;40.47;;;;;;;-0.24;78.26;101048.44;348843;28;1075;-83
2022/01/15 00:54:58;;;;;;;136.65;40.78;;;;;;;-0.21;77.83;101048.53;348186;28;1307;-83
2022/01/15 00:55:12;;;;;;;140.57;41.40;;;;;;;-0.24;77.55;101049.28;349333;28;1033;-83
2022/01/15 00:55:24;;;;;;;150.43;39.53;;;;;;;-0.39;78.11;101045.34;349581;28;763;-83
2022/01/15 00:55:36;;;;;;;149.70;36.92;;;;;;;-0.35;79.01;101044.63;347917;28;1468;-83
2022/01/15 00:55:48;;;;;;;161.02;37.95;;;;;;;-0.31;78.04;101038.81;345713;28;1785;-83
2022/01/15 00:56:00;;;;;;;141.88;39.42;;;;;;;-0.27;77.66;101044.06;346225;28;2060;-83
2022/01/15 00:56:12;;;;;;;112.55;38.78;;;;;;;-0.27;77.50;101049.19;344976;28;1581;-83
2022/01/15 00:56:24;;;;;;;128.38;40.10;;;;;;;-0.28;77.33;101046.56;345801;28;1143;-83
2022/01/15 00:56:37;;;;;;;140.60;40.72;;;;;;;-0.38;77.77;101044.50;346571;28;972;-83
2022/01/15 00:56:49;;;;;;;128.32;37.92;;;;;;;-0.46;78.47;101047.69;345289;28;744;-83
2022/01/15 00:57:01;;;;;;;167.63;40.05;;;;;;;-0.42;78.53;101051.22;344879;28;1194;-83
2022/01/15 00:57:18;;;;;;;202.88;43.22;;;;;;;-0.35;78.84;101045.50;345553;28;1223;-83
2022/01/15 00:57:31;;;;;;;197.98;45.45;;;;;;;-0.31;78.31;101046.47;344938;28;969;-83
2022/01/15 00:57:43;;;;;;;174.45;43.47;;;;;;;-0.32;78.21;101050.72;345297;28;1051;-83
2022/01/15 00:57:55;;;;;;;163.65;41.03;;;;;;;-0.36;78.79;101043.78;346500;28;1143;-83
2022/01/15 00:58:07;;;;;;;157.18;39.70;;;;;;;-0.39;79.04;101043.66;343838;28;1179;-83
2022/01/15 00:58:19;;;;;;;182.43;44.83;;;;;;;-0.45;79.13;101046.84;345322;28;721;-83
2022/01/15 00:58:31;;;;;;;214.45;48.88;;;;;;;-0.43;79.52;101041.81;344192;28;821;-83
2022/01/15 00:58:44;;;;;;;226.57;50.05;;;;;;;-0.42;79.04;101044.44;344046;28;1162;-83
2022/01/15 00:58:56;;;;;;;216.70;47.33;;;;;;;-0.39;79.33;101045.34;344018;28;1160;-83
2022/01/15 00:59:08;;;;;;;152.95;38.97;;;;;;;-0.36;77.58;101042.88;343566;28;1994;-83
2022/01/15 00:59:20;;;;;;;93.53;32.47;;;;;;;-0.34;77.14;101039.59;345034;28;1062;-83
2022/01/15 00:59:32;;;;;;;82.55;33.28;;;;;;;-0.33;77.25;101043.00;344556;28;1680;-83
2022/01/15 00:59:44;;;;;;;105.95;37.10;;;;;;;-0.29;77.74;101044.84;345247;28;1056;-83
2022/01/15 00:59:56;;;;;;;201.20;44.88;;;;;;;-0.28;77.68;101047.47;346789;28;1211;-83
2022/01/15 01:00:12;;;;;;;287.98;49.97;;;;;;;-0.24;77.44;101043.31;345242;28;1049;-83
2022/01/15 01:00:26;;;;;;;305.20;51.38;;;;;;;-0.25;77.83;101041.56;345530;28;1031;-83
2022/01/15 01:00:38;;;;;;;275.35;49.72;;;;;;;-0.28;78.18;101036.34;343836;28;1024;-83
2022/01/15 01:00:51;;;;;;;230.63;43.92;;;;;;;-0.33;77.81;101035.34;343806;28;1205;-83
2022/01/15 01:01:03;;;;;;;154.75;38.78;;;;;;;-0.31;77.38;101037.13;345820;28;1975;-83